Richmond, CA (94807)

2:38 AM PST on December 20, 2014 (GMT -0800)
Central Richmond | Change Station
CLOSE
Current Station
Personal Weather Station
Location: Richmond, CA
Elevation: 69 ft
Nearby Weather Stations
Active Advisory: Coastal Flood Advisory Active Notice: Public Information Statement

Elev 69 ft 37.93 °N, 122.35 °W | Updated 25 seconds ago

Overcast
Overcast
53.4 °F
Feels Like 53.4 °F
N
4.0
Wind Variable Wind from WNW
Gusts 5.0 mph

Today
High -- | Low -- °F
--% Chance of Precip.
Yesterday
High -- | Low -- °F
Precip. -- in
7:21 AM 4:53 PM
Waning Crescent, 3% visible
Pressure 30.14 in
Visibility 8.0 miles
Clouds Overcast 500 ft
Dew Point 53 °F
Humidity 98%
Rainfall 0.00 in
Snow Depth Not available.
UV 0 out of 12
Pollen 2.00 out of 12
Air Quality Not available.
Flu Activity Not available.
METAR KOAK 200953Z 17004KT 8SM OVC005 13/12 A3014 RMK AO2 RAE20 SLP207 P0000 T01330122

More Conditions Fewer Conditions

Pressure 30.14 in
Visibility 8.0 miles
Clouds Overcast 500 ft
Dew Point 53 °F
Humidity 98%
Rainfall 0.00 in
Snow Depth Not available.
UV 0 out of 12
Pollen 2.00 out of 12
Air Quality Not available.
Flu Activity Not available.
METAR KOAK 200953Z 17004KT 8SM OVC005 13/12 A3014 RMK AO2 RAE20 SLP207 P0000 T01330122

More Conditions Fewer Conditions

10-Day Weather Forecast

Almanac

Astronomy

Dec. 20, 2014 Rise Set
Actual Time
Civil Twilight
Nautical Twilight
Astronomical Twilight
Moon
Length of Visible Light
Length of Day
Tomorrow will be .
, % of the Moon is Illuminated

Today's Extremes

State Highs State Lows

Community

WunderPhotos

Upload Photos

1,779,151 photos uploaded!

WunderBlogs® & News

Nearby

Air Quality

  Air Quality AQ Index Pollutant
Not available.

Snow Depth

Station Depth Elevation

Earthquake Activity

City Distance Mag. Time & Date
Minimum magnitude displayed is 2.5.

Coastal Water Temperatures

Place Temperature

Nearby Weather Stations